sensor_id;sensor_type;location;lat;lon;timestamp;pressure;altitude;pressure_sealevel;temperature;humidity
25420;BME280;13354;48.174;11.566;2022-11-18T00:03:30;94066.22;;;8.88;92.08
25420;BME280;13354;48.174;11.566;2022-11-18T00:05:56;94066.84;;;8.83;91.45
25420;BME280;13354;48.174;11.566;2022-11-18T00:08:23;94064.31;;;8.77;90.92
25420;BME280;13354;48.174;11.566;2022-11-18T00:10:49;94063.84;;;8.80;92.41
25420;BME280;13354;48.174;11.566;2022-11-18T00:13:19;94055.00;;;8.74;91.91
25420;BME280;13354;48.174;11.566;2022-11-18T00:16:05;94055.00;;;8.74;91.64
25420;BME280;13354;48.174;11.566;2022-11-18T00:18:31;94060.34;;;8.86;92.71
25420;BME280;13354;48.174;11.566;2022-11-18T00:21:04;94057.50;;;8.69;92.98
25420;BME280;13354;48.174;11.566;2022-11-18T00:23:31;94058.88;;;8.71;91.92
25420;BME280;13354;48.174;11.566;2022-11-18T00:26:22;94057.41;;;8.76;91.51
25420;BME280;13354;48.174;11.566;2022-11-18T00:28:48;94048.25;;;8.78;92.65
25420;BME280;13354;48.174;11.566;2022-11-18T00:31:13;94054.31;;;8.79;92.79
25420;BME280;13354;48.174;11.566;2022-11-18T00:33:39;94049.41;;;8.82;91.49
25420;BME280;13354;48.174;11.566;2022-11-18T00:36:10;94051.53;;;8.92;92.00
25420;BME280;13354;48.174;11.566;2022-11-18T00:38:36;94056.91;;;8.85;92.98
25420;BME280;13354;48.174;11.566;2022-11-18T00:41:11;94045.97;;;8.82;92.58
25420;BME280;13354;48.174;11.566;2022-11-18T00:43:37;94038.94;;;8.76;92.09
25420;BME280;13354;48.174;11.566;2022-11-18T00:46:04;94034.97;;;8.85;92.74
25420;BME280;13354;48.174;11.566;2022-11-18T00:48:30;94040.75;;;8.75;91.90
25420;BME280;13354;48.174;11.566;2022-11-18T00:50:57;94035.13;;;8.71;91.84
25420;BME280;13354;48.174;11.566;2022-11-18T00:53:24;94034.09;;;8.73;92.38
25420;BME280;13354;48.174;11.566;2022-11-18T00:55:50;94041.56;;;8.57;92.62
25420;BME280;13354;48.174;11.566;2022-11-18T00:58:16;94027.94;;;8.60;93.15
25420;BME280;13354;48.174;11.566;2022-11-18T01:00:44;94027.22;;;8.53;93.11
25420;BME280;13354;48.174;11.566;2022-11-18T01:03:11;94019.09;;;8.55;93.38
25420;BME280;13354;48.174;11.566;2022-11-18T01:05:38;94020.75;;;8.49;93.03
25420;BME280;13354;48.174;11.566;2022-11-18T01:08:08;94021.56;;;8.50;94.32
25420;BME280;13354;48.174;11.566;2022-11-18T01:10:35;94026.03;;;8.49;94.56
25420;BME280;13354;48.174;11.566;2022-11-18T01:13:14;94028.16;;;8.40;94.48
25420;BME280;13354;48.174;11.566;2022-11-18T01:15:49;94018.63;;;8.58;93.85
25420;BME280;13354;48.174;11.566;2022-11-18T01:18:15;94018.19;;;8.42;95.27
25420;BME280;13354;48.174;11.566;2022-11-18T01:20:41;94019.09;;;8.55;95.22
25420;BME280;13354;48.174;11.566;2022-11-18T01:23:07;94018.41;;;8.41;96.17
25420;BME280;13354;48.174;11.566;2022-11-18T01:25:35;94019.16;;;8.48;95.51
25420;BME280;13354;48.174;11.566;2022-11-18T01:28:01;94003.72;;;8.52;96.26
25420;BME280;13354;48.174;11.566;2022-11-18T01:30:27;94008.91;;;8.40;97.63
25420;BME280;13354;48.174;11.566;2022-11-18T01:32:52;94013.72;;;8.43;98.75
25420;BME280;13354;48.174;11.566;2022-11-18T01:35:18;94006.28;;;8.58;96.55
25420;BME280;13354;48.174;11.566;2022-11-18T01:37:43;93998.38;;;8.40;97.81
25420;BME280;13354;48.174;11.566;2022-11-18T01:40:09;93989.84;;;8.38;99.16
25420;BME280;13354;48.174;11.566;2022-11-18T01:42:35;93997.75;;;8.38;100.00
25420;BME280;13354;48.174;11.566;2022-11-18T01:45:09;93985.19;;;8.40;100.00
25420;BME280;13354;48.174;11.566;2022-11-18T01:47:43;93986.97;;;8.39;100.00
25420;BME280;13354;48.174;11.566;2022-11-18T01:50:09;93999.38;;;8.39;100.00
25420;BME280;13354;48.174;11.566;2022-11-18T01:52:36;93995.06;;;8.44;100.00
25420;BME280;13354;48.174;11.566;2022-11-18T01:55:11;94007.06;;;8.40;100.00
25420;BME280;13354;48.174;11.566;2022-11-18T01:57:37;94007.66;;;8.61;100.00
25420;BME280;13354;48.174;11.566;2022-11-18T02:00:05;94010.09;;;8.62;100.00
25420;BME280;13354;48.174;11.566;2022-11-18T02:02:34;94009.06;;;8.63;99.71
25420;BME280;13354;48.174;11.566;2022-11-18T02:05:03;94007.16;;;8.52;99.71
25420;BME280;13354;48.174;11.566;2022-11-18T02:07:32;94009.19;;;8.50;99.99
25420;BME280;13354;48.174;11.566;2022-11-18T02:10:01;94011.56;;;8.58;99.92
25420;BME280;13354;48.174;11.566;2022-11-18T02:12:28;94012.06;;;8.49;100.00
25420;BME280;13354;48.174;11.566;2022-11-18T02:14:54;94013.34;;;8.58;99.63
25420;BME280;13354;48.174;11.566;2022-11-18T02:20:55;94018.19;;;8.61;99.52
25420;BME280;13354;48.174;11.566;2022-11-18T02:23:53;94010.16;;;8.56;99.23
25420;BME280;13354;48.174;11.566;2022-11-18T02:29:16;94020.41;;;8.64;99.17
25420;BME280;13354;48.174;11.566;2022-11-18T02:32:06;94008.97;;;8.70;98.54
25420;BME280;13354;48.174;11.566;2022-11-18T02:34:50;94012.00;;;8.55;98.70
25420;BME280;13354;48.174;11.566;2022-11-18T02:37:24;94006.25;;;8.95;97.27
25420;BME280;13354;48.174;11.566;2022-11-18T02:40:53;94010.66;;;8.64;97.26
25420;BME280;13354;48.174;11.566;2022-11-18T02:43:06;94010.81;;;8.69;98.25
25420;BME280;13354;48.174;11.566;2022-11-18T02:45:34;94005.38;;;8.64;98.25
25420;BME280;13354;48.174;11.566;2022-11-18T02:48:06;94006.69;;;8.74;98.36
25420;BME280;13354;48.174;11.566;2022-11-18T02:50:34;93998.63;;;8.68;97.37
25420;BME280;13354;48.174;11.566;2022-11-18T02:53:03;94012.13;;;8.60;98.56
25420;BME280;13354;48.174;11.566;2022-11-18T02:55:35;94011.75;;;8.57;99.51
25420;BME280;13354;48.174;11.566;2022-11-18T02:58:04;93999.38;;;8.57;99.70
25420;BME280;13354;48.174;11.566;2022-11-18T03:00:31;94003.41;;;8.60;99.42
25420;BME280;13354;48.174;11.566;2022-11-18T03:02:56;94008.53;;;8.55;99.70
25420;BME280;13354;48.174;11.566;2022-11-18T03:08:07;94002.00;;;8.57;99.30
25420;BME280;13354;48.174;11.566;2022-11-18T03:10:48;94010.28;;;8.61;99.36
25420;BME280;13354;48.174;11.566;2022-11-18T03:13:31;94006.84;;;8.60;98.18
25420;BME280;13354;48.174;11.566;2022-11-18T03:16:13;94000.69;;;8.48;98.06
25420;BME280;13354;48.174;11.566;2022-11-18T03:19:14;94004.00;;;8.62;98.03
25420;BME280;13354;48.174;11.566;2022-11-18T03:21:46;94000.63;;;8.55;97.69
25420;BME280;13354;48.174;11.566;2022-11-18T03:24:33;94006.34;;;8.52;98.11
25420;BME280;13354;48.174;11.566;2022-11-18T03:27:13;94003.72;;;8.52;99.49
25420;BME280;13354;48.174;11.566;2022-11-18T03:29:49;94006.19;;;8.46;99.65
25420;BME280;13354;48.174;11.566;2022-11-18T03:32:22;93999.59;;;8.37;100.00
25420;BME280;13354;48.174;11.566;2022-11-18T03:34:53;94010.34;;;8.36;100.00
25420;BME280;13354;48.174;11.566;2022-11-18T03:37:22;94016.97;;;8.45;100.00
25420;BME280;13354;48.174;11.566;2022-11-18T03:39:53;94020.47;;;8.39;100.00
25420;BME280;13354;48.174;11.566;2022-11-18T03:42:25;94026.78;;;8.38;100.00
25420;BME280;13354;48.174;11.566;2022-11-18T03:44:56;94027.06;;;8.48;100.00
25420;BME280;13354;48.174;11.566;2022-11-18T03:47:36;94033.03;;;8.37;100.00
25420;BME280;13354;48.174;11.566;2022-11-18T03:50:14;94041.38;;;8.34;100.00
25420;BME280;13354;48.174;11.566;2022-11-18T03:52:42;94043.59;;;8.37;100.00
25420;BME280;13354;48.174;11.566;2022-11-18T03:55:15;94050.44;;;8.44;100.00
25420;BME280;13354;48.174;11.566;2022-11-18T03:57:53;94056.88;;;8.23;100.00
25420;BME280;13354;48.174;11.566;2022-11-18T04:00:21;94061.91;;;8.07;100.00
25420;BME280;13354;48.174;11.566;2022-11-18T04:02:48;94068.59;;;8.28;100.00
25420;BME280;13354;48.174;11.566;2022-11-18T04:05:16;94070.41;;;8.09;100.00
25420;BME280;13354;48.174;11.566;2022-11-18T04:07:55;94068.19;;;8.06;100.00
25420;BME280;13354;48.174;11.566;2022-11-18T04:10:38;94080.78;;;8.04;100.00
25420;BME280;13354;48.174;11.566;2022-11-18T04:13:11;94075.25;;;8.12;100.00
25420;BME280;13354;48.174;11.566;2022-11-18T04:15:40;94083.00;;;8.07;100.00
25420;BME280;13354;48.174;11.566;2022-11-18T04:18:06;94071.38;;;7.89;100.00
25420;BME280;13354;48.174;11.566;2022-11-18T04:20:32;94072.59;;;7.87;100.00
25420;BME280;13354;48.174;11.566;2022-11-18T04:22:58;94068.09;;;7.94;100.00
25420;BME280;13354;48.174;11.566;2022-11-18T04:25:23;94062.56;;;7.77;100.00
25420;BME280;13354;48.174;11.566;2022-11-18T04:27:50;94057.47;;;7.75;100.00
25420;BME280;13354;48.174;11.566;2022-11-18T04:30:15;94065.00;;;7.72;100.00
25420;BME280;13354;48.174;11.566;2022-11-18T04:32:41;94057.88;;;7.79;100.00
25420;BME280;13354;48.174;11.566;2022-11-18T04:35:06;94068.31;;;7.92;100.00
25420;BME280;13354;48.174;11.566;2022-11-18T04:37:32;94065.44;;;7.94;100.00
25420;BME280;13354;48.174;11.566;2022-11-18T04:39:58;94064.28;;;7.90;100.00
25420;BME280;13354;48.174;11.566;2022-11-18T04:42:23;94059.38;;;7.93;100.00
25420;BME280;13354;48.174;11.566;2022-11-18T04:44:48;94057.28;;;8.02;100.00
25420;BME280;13354;48.174;11.566;2022-11-18T04:47:14;94056.75;;;7.93;100.00
25420;BME280;13354;48.174;11.566;2022-11-18T04:49:47;94056.19;;;8.10;100.00
25420;BME280;13354;48.174;11.566;2022-11-18T04:52:13;94057.50;;;8.01;100.00
25420;BME280;13354;48.174;11.566;2022-11-18T04:54:39;94058.94;;;7.96;100.00
25420;BME280;13354;48.174;11.566;2022-11-18T04:57:04;94056.50;;;7.95;100.00
25420;BME280;13354;48.174;11.566;2022-11-18T04:59:30;94055.81;;;8.06;100.00
25420;BME280;13354;48.174;11.566;2022-11-18T05:01:56;94052.88;;;7.96;100.00
25420;BME280;13354;48.174;11.566;2022-11-18T05:04:26;94056.09;;;7.98;100.00
25420;BME280;13354;48.174;11.566;2022-11-18T05:06:51;94057.28;;;8.02;100.00
25420;BME280;13354;48.174;11.566;2022-11-18T05:09:23;94055.50;;;7.96;100.00
25420;BME280;13354;48.174;11.566;2022-11-18T05:11:49;94056.91;;;7.98;100.00
25420;BME280;13354;48.174;11.566;2022-11-18T05:14:33;94060.09;;;8.07;99.95
25420;BME280;13354;48.174;11.566;2022-11-18T05:17:00;94061.75;;;8.02;100.00
25420;BME280;13354;48.174;11.566;2022-11-18T05:19:25;94050.16;;;8.03;99.44
25420;BME280;13354;48.174;11.566;2022-11-18T05:21:51;94047.91;;;8.06;100.00
25420;BME280;13354;48.174;11.566;2022-11-18T05:24:17;94050.88;;;7.91;100.00
25420;BME280;13354;48.174;11.566;2022-11-18T05:26:43;94056.50;;;7.95;99.70
25420;BME280;13354;48.174;11.566;2022-11-18T05:29:09;94047.53;;;8.03;98.03
25420;BME280;13354;48.174;11.566;2022-11-18T05:31:44;94047.19;;;7.99;98.13
25420;BME280;13354;48.174;11.566;2022-11-18T05:34:16;94052.22;;;8.01;98.39
25420;BME280;13354;48.174;11.566;2022-11-18T05:36:42;94054.75;;;7.89;99.49
25420;BME280;13354;48.174;11.566;2022-11-18T05:39:17;94054.34;;;7.92;98.52
25420;BME280;13354;48.174;11.566;2022-11-18T05:41:42;94058.56;;;7.93;97.83
25420;BME280;13354;48.174;11.566;2022-11-18T05:44:26;94053.97;;;7.88;97.48
25420;BME280;13354;48.174;11.566;2022-11-18T05:46:59;94053.78;;;8.08;95.06
25420;BME280;13354;48.174;11.566;2022-11-18T05:49:25;94065.63;;;7.99;95.62
25420;BME280;13354;48.174;11.566;2022-11-18T05:51:50;94065.03;;;7.97;95.05
25420;BME280;13354;48.174;11.566;2022-11-18T05:54:18;94069.25;;;7.98;94.86
25420;BME280;13354;48.174;11.566;2022-11-18T05:56:54;94068.19;;;8.06;93.03
25420;BME280;13354;48.174;11.566;2022-11-18T05:59:20;94071.09;;;7.97;93.99
25420;BME280;13354;48.174;11.566;2022-11-18T06:01:58;94069.44;;;8.03;92.52
25420;BME280;13354;48.174;11.566;2022-11-18T06:07:01;94077.22;;;7.91;93.47
25420;BME280;13354;48.174;11.566;2022-11-18T06:09:33;94082.41;;;8.05;91.96
25420;BME280;13354;48.174;11.566;2022-11-18T06:12:02;94079.00;;;7.97;92.63
25420;BME280;13354;48.174;11.566;2022-11-18T06:14:37;94077.22;;;7.91;91.86
25420;BME280;13354;48.174;11.566;2022-11-18T06:17:05;94079.75;;;8.05;91.14
25420;BME280;13354;48.174;11.566;2022-11-18T06:19:33;94083.44;;;8.04;90.78
25420;BME280;13354;48.174;11.566;2022-11-18T06:21:59;94091.81;;;7.94;91.94
25420;BME280;13354;48.174;11.566;2022-11-18T06:24:25;94098.19;;;7.80;92.65
25420;BME280;13354;48.174;11.566;2022-11-18T06:29:39;94098.94;;;7.87;92.16
25420;BME280;13354;48.174;11.566;2022-11-18T06:32:04;94116.69;;;7.98;92.40
25420;BME280;13354;48.174;11.566;2022-11-18T06:34:30;94116.75;;;7.91;92.18
25420;BME280;13354;48.174;11.566;2022-11-18T06:36:55;94127.53;;;7.83;93.42
25420;BME280;13354;48.174;11.566;2022-11-18T06:39:21;94135.25;;;7.85;93.95
25420;BME280;13354;48.174;11.566;2022-11-18T06:41:51;94126.91;;;7.88;94.22
25420;BME280;13354;48.174;11.566;2022-11-18T06:44:25;94115.69;;;7.99;94.32
25420;BME280;13354;48.174;11.566;2022-11-18T06:47:03;94127.34;;;7.85;93.31
25420;BME280;13354;48.174;11.566;2022-11-18T06:49:29;94127.19;;;7.73;94.72
25420;BME280;13354;48.174;11.566;2022-11-18T06:51:55;94137.69;;;7.80;95.10
25420;BME280;13354;48.174;11.566;2022-11-18T06:54:20;94136.31;;;7.77;94.44
25420;BME280;13354;48.174;11.566;2022-11-18T06:56:46;94142.50;;;7.89;93.98
25420;BME280;13354;48.174;11.566;2022-11-18T06:59:12;94154.22;;;7.93;93.63
25420;BME280;13354;48.174;11.566;2022-11-18T07:01:39;94145.88;;;8.03;92.86
25420;BME280;13354;48.174;11.566;2022-11-18T07:04:19;94152.88;;;7.84;92.76
25420;BME280;13354;48.174;11.566;2022-11-18T07:06:50;94145.19;;;7.83;92.17
25420;BME280;13354;48.174;11.566;2022-11-18T07:09:24;94148.44;;;7.85;92.60
25420;BME280;13354;48.174;11.566;2022-11-18T07:11:56;94169.69;;;7.83;91.65
25420;BME280;13354;48.174;11.566;2022-11-18T07:14:21;94161.38;;;7.86;91.48
25420;BME280;13354;48.174;11.566;2022-11-18T07:16:50;94165.63;;;7.87;91.14
25420;BME280;13354;48.174;11.566;2022-11-18T07:19:15;94173.72;;;7.92;89.81
25420;BME280;13354;48.174;11.566;2022-11-18T07:21:41;94183.63;;;7.90;90.04
25420;BME280;13354;48.174;11.566;2022-11-18T07:24:08;94171.50;;;7.89;89.59
25420;BME280;13354;48.174;11.566;2022-11-18T07:26:34;94176.91;;;7.94;89.92
25420;BME280;13354;48.174;11.566;2022-11-18T07:29:03;94192.94;;;7.93;90.02
25420;BME280;13354;48.174;11.566;2022-11-18T07:31:32;94196.13;;;8.02;90.41
25420;BME280;13354;48.174;11.566;2022-11-18T07:34:08;94192.66;;;8.08;90.37
25420;BME280;13354;48.174;11.566;2022-11-18T07:36:38;94196.09;;;8.08;90.37
25420;BME280;13354;48.174;11.566;2022-11-18T07:39:05;94194.47;;;8.14;89.96
25420;BME280;13354;48.174;11.566;2022-11-18T07:41:31;94197.66;;;8.16;90.37
25420;BME280;13354;48.174;11.566;2022-11-18T07:43:59;94200.09;;;8.17;90.07
25420;BME280;13354;48.174;11.566;2022-11-18T07:46:31;94197.03;;;8.20;90.08
25420;BME280;13354;48.174;11.566;2022-11-18T07:48:59;94203.16;;;8.14;90.20
25420;BME280;13354;48.174;11.566;2022-11-18T07:51:27;94202.78;;;8.11;90.99
25420;BME280;13354;48.174;11.566;2022-11-18T07:53:56;94209.28;;;8.08;91.06
25420;BME280;13354;48.174;11.566;2022-11-18T07:56:47;94208.47;;;8.08;91.89
25420;BME280;13354;48.174;11.566;2022-11-18T08:00:10;94208.28;;;8.03;91.50
25420;BME280;13354;48.174;11.566;2022-11-18T08:05:46;94211.31;;;8.06;92.14
25420;BME280;13354;48.174;11.566;2022-11-18T08:08:11;94216.56;;;8.06;92.45
25420;BME280;13354;48.174;11.566;2022-11-18T08:10:37;94233.38;;;8.12;91.92
25420;BME280;13354;48.174;11.566;2022-11-18T08:13:02;94225.31;;;8.07;92.11
25420;BME280;13354;48.174;11.566;2022-11-18T08:15:31;94227.50;;;8.10;92.57
25420;BME280;13354;48.174;11.566;2022-11-18T08:17:59;94235.03;;;8.06;93.13
25420;BME280;13354;48.174;11.566;2022-11-18T08:20:25;94232.97;;;8.15;93.20
25420;BME280;13354;48.174;11.566;2022-11-18T08:22:52;94241.50;;;8.10;93.07
25420;BME280;13354;48.174;11.566;2022-11-18T08:25:18;94241.31;;;8.05;93.79
25420;BME280;13354;48.174;11.566;2022-11-18T08:27:43;94234.22;;;8.06;93.97
25420;BME280;13354;48.174;11.566;2022-11-18T08:30:09;94241.06;;;8.13;93.59
25420;BME280;13354;48.174;11.566;2022-11-18T08:32:35;94242.28;;;8.17;93.68
25420;BME280;13354;48.174;11.566;2022-11-18T08:35:00;94242.88;;;8.19;93.99
25420;BME280;13354;48.174;11.566;2022-11-18T08:37:26;94251.00;;;8.18;94.37
25420;BME280;13354;48.174;11.566;2022-11-18T08:39:51;94247.78;;;8.09;94.76
25420;BME280;13354;48.174;11.566;2022-11-18T08:42:17;94245.53;;;8.13;94.97
25420;BME280;13354;48.174;11.566;2022-11-18T08:44:46;94244.91;;;8.17;94.73
25420;BME280;13354;48.174;11.566;2022-11-18T08:47:12;94248.16;;;8.13;94.84
25420;BME280;13354;48.174;11.566;2022-11-18T08:49:38;94251.56;;;8.20;94.14
25420;BME280;13354;48.174;11.566;2022-11-18T08:52:04;94260.09;;;8.22;94.28
25420;BME280;13354;48.174;11.566;2022-11-18T08:54:29;94256.84;;;8.20;94.47
25420;BME280;13354;48.174;11.566;2022-11-18T08:56:55;94263.91;;;8.26;95.83
25420;BME280;13354;48.174;11.566;2022-11-18T08:59:21;94270.00;;;8.27;95.42
25420;BME280;13354;48.174;11.566;2022-11-18T09:01:46;94265.91;;;8.31;95.52
25420;BME280;13354;48.174;11.566;2022-11-18T09:04:12;94270.13;;;8.45;95.39
25420;BME280;13354;48.174;11.566;2022-11-18T09:06:38;94269.16;;;8.33;94.63
25420;BME280;13354;48.174;11.566;2022-11-18T09:09:04;94270.41;;;8.23;93.85
25420;BME280;13354;48.174;11.566;2022-11-18T09:11:30;94271.41;;;8.29;93.41
25420;BME280;13354;48.174;11.566;2022-11-18T09:13:57;94272.00;;;8.31;92.19
25420;BME280;13354;48.174;11.566;2022-11-18T09:16:24;94281.59;;;8.19;91.55
25420;BME280;13354;48.174;11.566;2022-11-18T09:18:50;94286.50;;;8.09;92.19
25420;BME280;13354;48.174;11.566;2022-11-18T09:21:17;94294.94;;;8.24;91.67
25420;BME280;13354;48.174;11.566;2022-11-18T09:23:43;94286.88;;;8.19;90.69
25420;BME280;13354;48.174;11.566;2022-11-18T09:26:11;94289.97;;;8.09;91.65
25420;BME280;13354;48.174;11.566;2022-11-18T09:28:37;94294.41;;;8.15;91.53
25420;BME280;13354;48.174;11.566;2022-11-18T09:31:07;94298.25;;;8.13;90.77
25420;BME280;13354;48.174;11.566;2022-11-18T09:33:34;94294.81;;;8.12;91.39
25420;BME280;13354;48.174;11.566;2022-11-18T09:36:00;94301.69;;;8.13;90.28
25420;BME280;13354;48.174;11.566;2022-11-18T09:38:28;94305.19;;;8.07;88.55
25420;BME280;13354;48.174;11.566;2022-11-18T09:49:30;94318.38;;;8.07;87.74
25420;BME280;13354;48.174;11.566;2022-11-18T09:52:00;94323.00;;;8.12;88.31
25420;BME280;13354;48.174;11.566;2022-11-18T09:54:30;94322.34;;;8.23;88.16
25420;BME280;13354;48.174;11.566;2022-11-18T09:56:58;94325.88;;;8.10;89.32
25420;BME280;13354;48.174;11.566;2022-11-18T09:59:26;94325.00;;;8.16;89.34
25420;BME280;13354;48.174;11.566;2022-11-18T10:01:56;94331.97;;;8.04;89.12
25420;BME280;13354;48.174;11.566;2022-11-18T10:04:22;94327.28;;;8.06;88.97
25420;BME280;13354;48.174;11.566;2022-11-18T10:06:49;94334.19;;;8.07;88.77
25420;BME280;13354;48.174;11.566;2022-11-18T10:15:01;94332.28;;;8.21;90.01
25420;BME280;13354;48.174;11.566;2022-11-18T10:17:48;94342.09;;;8.07;90.25
25420;BME280;13354;48.174;11.566;2022-11-18T10:20:37;94343.91;;;8.07;89.74
25420;BME280;13354;48.174;11.566;2022-11-18T10:23:28;94344.34;;;7.97;90.65
25420;BME280;13354;48.174;11.566;2022-11-18T10:25:56;94334.41;;;7.99;91.05
25420;BME280;13354;48.174;11.566;2022-11-18T10:28:25;94338.84;;;8.05;90.33
25420;BME280;13354;48.174;11.566;2022-11-18T10:30:53;94333.53;;;8.18;89.26
25420;BME280;13354;48.174;11.566;2022-11-18T10:33:27;94339.22;;;8.09;89.87
25420;BME280;13354;48.174;11.566;2022-11-18T10:38:34;94332.31;;;8.14;90.02
25420;BME280;13354;48.174;11.566;2022-11-18T10:41:08;94330.88;;;8.18;89.39
25420;BME280;13354;48.174;11.566;2022-11-18T10:46:27;94339.06;;;7.97;90.10
25420;BME280;13354;48.174;11.566;2022-11-18T10:49:16;94336.03;;;8.00;89.46
25420;BME280;13354;48.174;11.566;2022-11-18T10:52:10;94336.69;;;7.82;91.01
25420;BME280;13354;48.174;11.566;2022-11-18T10:54:37;94336.88;;;7.87;91.85
25420;BME280;13354;48.174;11.566;2022-11-18T10:57:20;94350.50;;;7.78;92.91
25420;BME280;13354;48.174;11.566;2022-11-18T10:59:54;94343.97;;;7.80;93.93
25420;BME280;13354;48.174;11.566;2022-11-18T11:02:32;94341.97;;;7.75;94.15
25420;BME280;13354;48.174;11.566;2022-11-18T11:05:02;94343.00;;;7.68;94.53
25420;BME280;13354;48.174;11.566;2022-11-18T11:08:25;94333.09;;;7.70;94.94
25420;BME280;13354;48.174;11.566;2022-11-18T11:10:31;94329.22;;;7.72;95.02
25420;BME280;13354;48.174;11.566;2022-11-18T11:13:12;94333.69;;;7.72;95.85
25420;BME280;13354;48.174;11.566;2022-11-18T11:16:09;94326.97;;;7.76;96.68
25420;BME280;13354;48.174;11.566;2022-11-18T11:18:56;94331.00;;;7.92;97.00
25420;BME280;13354;48.174;11.566;2022-11-18T11:21:25;94333.78;;;8.04;96.74
25420;BME280;13354;48.174;11.566;2022-11-18T11:24:00;94330.13;;;8.05;95.45
25420;BME280;13354;48.174;11.566;2022-11-18T11:32:18;94344.34;;;8.04;96.02
25420;BME280;13354;48.174;11.566;2022-11-18T11:35:21;94339.03;;;8.10;95.75
25420;BME280;13354;48.174;11.566;2022-11-18T11:37:54;94341.69;;;8.10;94.96
25420;BME280;13354;48.174;11.566;2022-11-18T11:51:43;94343.97;;;7.80;95.20
25420;BME280;13354;48.174;11.566;2022-11-18T11:54:45;94350.03;;;7.94;94.29
25420;BME280;13354;48.174;11.566;2022-11-18T11:57:19;94346.66;;;7.73;95.39
25420;BME280;13354;48.174;11.566;2022-11-18T12:02:43;94347.47;;;7.81;96.62
25420;BME280;13354;48.174;11.566;2022-11-18T12:05:21;94352.91;;;7.72;97.49
25420;BME280;13354;48.174;11.566;2022-11-18T12:07:54;94352.50;;;7.82;96.93
25420;BME280;13354;48.174;11.566;2022-11-18T12:13:44;94358.16;;;7.92;96.51
25420;BME280;13354;48.174;11.566;2022-11-18T12:16:35;94361.34;;;8.01;96.05
25420;BME280;13354;48.174;11.566;2022-11-18T12:19:11;94363.78;;;8.03;96.26
25420;BME280;13354;48.174;11.566;2022-11-18T12:21:52;94357.69;;;8.09;94.51
25420;BME280;13354;48.174;11.566;2022-11-18T12:30:01;94362.38;;;8.00;92.36
25420;BME280;13354;48.174;11.566;2022-11-18T12:32:41;94371.75;;;7.76;92.68
25420;BME280;13354;48.174;11.566;2022-11-18T12:40:01;94378.66;;;7.77;92.57
25420;BME280;13354;48.174;11.566;2022-11-18T12:48:27;94391.66;;;7.59;95.17
25420;BME280;13354;48.174;11.566;2022-11-18T12:51:02;94396.31;;;7.57;95.14
25420;BME280;13354;48.174;11.566;2022-11-18T12:53:45;94397.75;;;7.66;94.98
25420;BME280;13354;48.174;11.566;2022-11-18T12:56:23;94407.44;;;7.65;95.21
25420;BME280;13354;48.174;11.566;2022-11-18T12:58:52;94401.19;;;7.53;94.77
25420;BME280;13354;48.174;11.566;2022-11-18T13:01:23;94404.63;;;7.60;93.93
25420;BME280;13354;48.174;11.566;2022-11-18T13:03:50;94408.28;;;7.53;95.30
25420;BME280;13354;48.174;11.566;2022-11-18T13:06:23;94404.22;;;7.57;94.79
25420;BME280;13354;48.174;11.566;2022-11-18T13:09:00;94411.31;;;7.56;94.00
25420;BME280;13354;48.174;11.566;2022-11-18T13:11:28;94417.38;;;7.43;93.60
25420;BME280;13354;48.174;11.566;2022-11-18T13:14:16;94424.69;;;7.48;94.11
25420;BME280;13354;48.174;11.566;2022-11-18T13:17:02;94433.59;;;7.34;93.62
25420;BME280;13354;48.174;11.566;2022-11-18T13:19:56;94419.22;;;7.23;93.40
25420;BME280;13354;48.174;11.566;2022-11-18T13:22:22;94429.13;;;7.21;94.30
25420;BME280;13354;48.174;11.566;2022-11-18T13:25:20;94422.69;;;7.37;92.79
25420;BME280;13354;48.174;11.566;2022-11-18T13:27:54;94428.13;;;7.22;92.69
25420;BME280;13354;48.174;11.566;2022-11-18T13:30:22;94420.84;;;7.31;92.73
25420;BME280;13354;48.174;11.566;2022-11-18T13:32:49;94425.69;;;7.27;93.98
25420;BME280;13354;48.174;11.566;2022-11-18T13:35:18;94429.75;;;7.16;93.87
25420;BME280;13354;48.174;11.566;2022-11-18T13:37:59;94430.38;;;7.18;93.84
25420;BME280;13354;48.174;11.566;2022-11-18T13:40:31;94430.56;;;7.30;94.40
25420;BME280;13354;48.174;11.566;2022-11-18T13:43:02;94426.09;;;7.31;94.20
25420;BME280;13354;48.174;11.566;2022-11-18T13:45:28;94427.31;;;7.41;93.90
25420;BME280;13354;48.174;11.566;2022-11-18T13:47:59;94431.97;;;7.39;94.01
25420;BME280;13354;48.174;11.566;2022-11-18T13:53:10;94425.69;;;7.60;94.18
25420;BME280;13354;48.174;11.566;2022-11-18T13:56:00;94425.91;;;7.59;94.76
25420;BME280;13354;48.174;11.566;2022-11-18T13:58:38;94430.78;;;7.55;94.87
25420;BME280;13354;48.174;11.566;2022-11-18T14:01:21;94429.53;;;7.58;95.47
25420;BME280;13354;48.174;11.566;2022-11-18T14:03:53;94433.19;;;7.57;96.68
25420;BME280;13354;48.174;11.566;2022-11-18T14:06:28;94442.50;;;7.46;97.06
25420;BME280;13354;48.174;11.566;2022-11-18T14:09:14;94437.03;;;7.54;98.35
25420;BME280;13354;48.174;11.566;2022-11-18T14:11:43;94436.66;;;7.44;98.33
25420;BME280;13354;48.174;11.566;2022-11-18T14:14:10;94438.84;;;7.47;99.37
25420;BME280;13354;48.174;11.566;2022-11-18T14:16:40;94439.28;;;7.44;99.76
25420;BME280;13354;48.174;11.566;2022-11-18T14:19:27;94435.00;;;7.56;99.19
25420;BME280;13354;48.174;11.566;2022-11-18T14:22:13;94437.44;;;7.51;99.08
25420;BME280;13354;48.174;11.566;2022-11-18T14:24:40;94439.88;;;7.46;98.90
25420;BME280;13354;48.174;11.566;2022-11-18T14:27:34;94441.09;;;7.50;99.29
25420;BME280;13354;48.174;11.566;2022-11-18T14:30:21;94442.50;;;7.46;99.09
25420;BME280;13354;48.174;11.566;2022-11-18T14:35:27;94441.50;;;7.60;99.83
25420;BME280;13354;48.174;11.566;2022-11-18T14:37:54;94444.13;;;7.54;99.57
25420;BME280;13354;48.174;11.566;2022-11-18T14:40:19;94445.75;;;7.48;100.00
25420;BME280;13354;48.174;11.566;2022-11-18T14:42:45;94445.16;;;7.53;100.00
25420;BME280;13354;48.174;11.566;2022-11-18T14:45:10;94451.03;;;7.48;100.00